sensor_id;sensor_type;location;lat;lon;timestamp;pressure;altitude;pressure_sealevel;temperature;humidity
10832;BME280;5469;48.574;8.768;2023-02-10T00:02:32;96539.22;;;0.66;58.13
10832;BME280;5469;48.574;8.768;2023-02-10T00:05:08;96549.31;;;0.69;57.76
10832;BME280;5469;48.574;8.768;2023-02-10T00:07:43;96550.63;;;0.73;57.80
10832;BME280;5469;48.574;8.768;2023-02-10T00:10:19;96539.91;;;0.60;58.10
10832;BME280;5469;48.574;8.768;2023-02-10T00:12:56;96558.66;;;0.55;58.91
10832;BME280;5469;48.574;8.768;2023-02-10T00:15:31;96547.19;;;0.64;57.85
10832;BME280;5469;48.574;8.768;2023-02-10T00:18:06;96542.31;;;0.61;58.61
10832;BME280;5469;48.574;8.768;2023-02-10T00:20:42;96541.72;;;0.43;59.35
10832;BME280;5469;48.574;8.768;2023-02-10T00:23:17;96541.28;;;-0.34;61.44
10832;BME280;5469;48.574;8.768;2023-02-10T00:25:52;96542.41;;;-0.37;62.25
10832;BME280;5469;48.574;8.768;2023-02-10T00:28:28;96540.63;;;0.05;61.21
10832;BME280;5469;48.574;8.768;2023-02-10T00:31:07;96542.88;;;-0.50;64.16
10832;BME280;5469;48.574;8.768;2023-02-10T00:33:43;96544.03;;;-0.03;61.83
10832;BME280;5469;48.574;8.768;2023-02-10T00:36:18;96536.75;;;-0.08;62.31
10832;BME280;5469;48.574;8.768;2023-02-10T00:38:55;96530.84;;;0.07;61.00
10832;BME280;5469;48.574;8.768;2023-02-10T00:41:31;96538.34;;;-0.39;61.77
10832;BME280;5469;48.574;8.768;2023-02-10T00:44:12;96541.28;;;-0.26;62.61
10832;BME280;5469;48.574;8.768;2023-02-10T00:46:47;96538.97;;;0.20;60.70
10832;BME280;5469;48.574;8.768;2023-02-10T00:49:22;96547.94;;;-0.56;63.91
10832;BME280;5469;48.574;8.768;2023-02-10T00:51:58;96538.66;;;-0.26;62.13
10832;BME280;5469;48.574;8.768;2023-02-10T00:54:33;96561.44;;;-0.61;63.69
10832;BME280;5469;48.574;8.768;2023-02-10T00:57:08;96553.66;;;-0.28;61.93
10832;BME280;5469;48.574;8.768;2023-02-10T00:59:45;96555.44;;;-0.29;62.99
10832;BME280;5469;48.574;8.768;2023-02-10T01:02:23;96558.22;;;-0.30;63.26
10832;BME280;5469;48.574;8.768;2023-02-10T01:04:58;96558.50;;;-0.50;64.12
10832;BME280;5469;48.574;8.768;2023-02-10T01:07:34;96561.16;;;-0.41;63.62
10832;BME280;5469;48.574;8.768;2023-02-10T01:10:09;96558.22;;;-0.22;63.29
10832;BME280;5469;48.574;8.768;2023-02-10T01:12:44;96562.75;;;-0.49;64.22
10832;BME280;5469;48.574;8.768;2023-02-10T01:15:20;96561.78;;;-0.48;64.04
10832;BME280;5469;48.574;8.768;2023-02-10T01:17:56;96560.81;;;-0.22;62.48
10832;BME280;5469;48.574;8.768;2023-02-10T01:20:31;96570.44;;;-0.31;62.42
10832;BME280;5469;48.574;8.768;2023-02-10T01:23:08;96571.91;;;-0.28;63.49
10832;BME280;5469;48.574;8.768;2023-02-10T01:25:43;96569.53;;;-0.72;65.03
10832;BME280;5469;48.574;8.768;2023-02-10T01:28:18;96563.94;;;-0.10;62.69
10832;BME280;5469;48.574;8.768;2023-02-10T01:30:55;96565.88;;;0.04;60.85
10832;BME280;5469;48.574;8.768;2023-02-10T01:33:30;96573.84;;;-0.06;60.63
10832;BME280;5469;48.574;8.768;2023-02-10T01:36:08;96575.47;;;-0.29;62.74
10832;BME280;5469;48.574;8.768;2023-02-10T01:38:44;96572.50;;;-0.51;63.33
10832;BME280;5469;48.574;8.768;2023-02-10T01:41:22;96575.47;;;-0.46;64.31
10832;BME280;5469;48.574;8.768;2023-02-10T01:44:01;96573.84;;;-0.47;65.30
10832;BME280;5469;48.574;8.768;2023-02-10T01:46:38;96567.63;;;-0.54;63.08
10832;BME280;5469;48.574;8.768;2023-02-10T01:49:15;96568.03;;;-1.25;66.63
10832;BME280;5469;48.574;8.768;2023-02-10T01:51:54;96566.97;;;-0.64;63.31
10832;BME280;5469;48.574;8.768;2023-02-10T01:54:36;96575.72;;;-0.65;64.40
10832;BME280;5469;48.574;8.768;2023-02-10T01:57:13;96579.13;;;-1.15;65.81
10832;BME280;5469;48.574;8.768;2023-02-10T01:59:50;96568.53;;;-1.48;68.25
10832;BME280;5469;48.574;8.768;2023-02-10T02:02:27;96578.97;;;-1.22;67.92
10832;BME280;5469;48.574;8.768;2023-02-10T02:05:05;96566.53;;;-0.94;66.64
10832;BME280;5469;48.574;8.768;2023-02-10T02:07:40;96577.56;;;-1.00;65.67
10832;BME280;5469;48.574;8.768;2023-02-10T02:10:15;96574.53;;;-1.29;67.33
10832;BME280;5469;48.574;8.768;2023-02-10T02:12:55;96572.78;;;-0.70;65.25
10832;BME280;5469;48.574;8.768;2023-02-10T02:15:39;96573.31;;;-0.50;64.54
10832;BME280;5469;48.574;8.768;2023-02-10T02:18:20;96576.41;;;-0.55;64.58
10832;BME280;5469;48.574;8.768;2023-02-10T02:21:17;96593.09;;;-0.15;62.54
10832;BME280;5469;48.574;8.768;2023-02-10T02:27:22;96591.28;;;-0.14;61.57
10832;BME280;5469;48.574;8.768;2023-02-10T02:30:22;96587.88;;;-0.15;61.27
10832;BME280;5469;48.574;8.768;2023-02-10T02:33:10;96579.72;;;-0.28;62.04
10832;BME280;5469;48.574;8.768;2023-02-10T02:35:53;96588.03;;;-0.08;60.42
10832;BME280;5469;48.574;8.768;2023-02-10T02:38:36;96575.31;;;-0.19;60.48
10832;BME280;5469;48.574;8.768;2023-02-10T02:41:11;96587.13;;;-0.58;62.64
10832;BME280;5469;48.574;8.768;2023-02-10T02:43:48;96584.31;;;-0.73;63.63
10832;BME280;5469;48.574;8.768;2023-02-10T02:46:27;96582.94;;;-0.51;62.87
10832;BME280;5469;48.574;8.768;2023-02-10T02:49:08;96589.16;;;-0.43;61.62
10832;BME280;5469;48.574;8.768;2023-02-10T02:51:52;96591.28;;;-0.39;62.09
10832;BME280;5469;48.574;8.768;2023-02-10T02:54:37;96597.31;;;-0.22;61.58
10832;BME280;5469;48.574;8.768;2023-02-10T02:57:22;96605.78;;;-0.20;61.01
10832;BME280;5469;48.574;8.768;2023-02-10T03:00:04;96612.94;;;-0.22;61.15
10832;BME280;5469;48.574;8.768;2023-02-10T03:02:43;96611.25;;;-0.56;63.21
10832;BME280;5469;48.574;8.768;2023-02-10T03:05:23;96613.28;;;-1.70;66.96
10832;BME280;5469;48.574;8.768;2023-02-10T03:08:03;96612.94;;;-1.49;67.03
10832;BME280;5469;48.574;8.768;2023-02-10T03:10:38;96607.81;;;-1.59;66.48
10832;BME280;5469;48.574;8.768;2023-02-10T03:13:13;96606.78;;;-1.66;67.07
10832;BME280;5469;48.574;8.768;2023-02-10T03:15:48;96606.97;;;-1.68;67.81
10832;BME280;5469;48.574;8.768;2023-02-10T03:18:23;96609.75;;;-1.61;68.35
10832;BME280;5469;48.574;8.768;2023-02-10T03:21:00;96614.03;;;-1.78;68.94
10832;BME280;5469;48.574;8.768;2023-02-10T03:23:36;96611.72;;;-1.63;68.35
10832;BME280;5469;48.574;8.768;2023-02-10T03:26:11;96619.56;;;-1.55;67.89
10832;BME280;5469;48.574;8.768;2023-02-10T03:28:46;96616.25;;;-1.05;64.95
10832;BME280;5469;48.574;8.768;2023-02-10T03:31:21;96610.28;;;-0.97;65.12
10832;BME280;5469;48.574;8.768;2023-02-10T03:33:56;96608.63;;;-0.64;63.26
10832;BME280;5469;48.574;8.768;2023-02-10T03:36:33;96606.59;;;-0.78;64.63
10832;BME280;5469;48.574;8.768;2023-02-10T03:39:08;96615.78;;;-1.08;65.77
10832;BME280;5469;48.574;8.768;2023-02-10T03:41:43;96620.63;;;-1.40;67.33
10832;BME280;5469;48.574;8.768;2023-02-10T03:44:18;96614.97;;;-1.35;67.35
10832;BME280;5469;48.574;8.768;2023-02-10T03:46:53;96612.56;;;-1.28;66.28
10832;BME280;5469;48.574;8.768;2023-02-10T03:49:28;96619.75;;;-1.22;66.57
10832;BME280;5469;48.574;8.768;2023-02-10T03:52:06;96625.25;;;-1.25;66.23
10832;BME280;5469;48.574;8.768;2023-02-10T03:54:40;96632.06;;;-1.77;67.81
10832;BME280;5469;48.574;8.768;2023-02-10T03:57:15;96631.19;;;-1.41;67.18
10832;BME280;5469;48.574;8.768;2023-02-10T03:59:52;96634.84;;;-1.52;67.91
10832;BME280;5469;48.574;8.768;2023-02-10T04:02:29;96633.06;;;-1.51;67.05
10832;BME280;5469;48.574;8.768;2023-02-10T04:05:04;96636.28;;;-1.32;65.85
10832;BME280;5469;48.574;8.768;2023-02-10T04:07:41;96635.34;;;-1.22;66.14
10832;BME280;5469;48.574;8.768;2023-02-10T04:10:15;96634.84;;;-1.00;65.03
10832;BME280;5469;48.574;8.768;2023-02-10T04:12:50;96632.19;;;-1.08;65.97
10832;BME280;5469;48.574;8.768;2023-02-10T04:15:26;96633.78;;;-1.15;65.11
10832;BME280;5469;48.574;8.768;2023-02-10T04:18:01;96638.63;;;-1.20;64.97
10832;BME280;5469;48.574;8.768;2023-02-10T04:20:36;96642.59;;;-1.08;64.45
10832;BME280;5469;48.574;8.768;2023-02-10T04:23:13;96636.78;;;-1.02;65.05
10832;BME280;5469;48.574;8.768;2023-02-10T04:25:48;96633.94;;;-1.43;65.57
10832;BME280;5469;48.574;8.768;2023-02-10T04:28:24;96639.34;;;-1.62;66.48
10832;BME280;5469;48.574;8.768;2023-02-10T04:31:02;96637.13;;;-1.93;67.50
10832;BME280;5469;48.574;8.768;2023-02-10T04:33:38;96636.38;;;-1.85;68.22
10832;BME280;5469;48.574;8.768;2023-02-10T04:36:14;96632.94;;;-1.50;66.59
10832;BME280;5469;48.574;8.768;2023-02-10T04:38:51;96635.94;;;-1.81;67.94
10832;BME280;5469;48.574;8.768;2023-02-10T04:41:26;96637.72;;;-1.63;67.24
10832;BME280;5469;48.574;8.768;2023-02-10T04:44:00;96636.47;;;-1.51;66.89
10832;BME280;5469;48.574;8.768;2023-02-10T04:46:36;96639.94;;;-1.68;66.97
10832;BME280;5469;48.574;8.768;2023-02-10T04:49:10;96635.41;;;-1.40;65.29
10832;BME280;5469;48.574;8.768;2023-02-10T04:51:46;96645.47;;;-1.19;64.59
10832;BME280;5469;48.574;8.768;2023-02-10T04:54:23;96644.00;;;-0.88;63.18
10832;BME280;5469;48.574;8.768;2023-02-10T04:56:58;96636.19;;;-1.22;63.96
10832;BME280;5469;48.574;8.768;2023-02-10T04:59:33;96647.50;;;-1.57;65.95
10832;BME280;5469;48.574;8.768;2023-02-10T05:02:08;96642.00;;;-1.54;65.70
10832;BME280;5469;48.574;8.768;2023-02-10T05:04:43;96638.22;;;-1.34;64.87
10832;BME280;5469;48.574;8.768;2023-02-10T05:07:18;96641.53;;;-1.93;66.95
10832;BME280;5469;48.574;8.768;2023-02-10T05:09:54;96642.38;;;-1.67;66.21
10832;BME280;5469;48.574;8.768;2023-02-10T05:12:29;96647.97;;;-1.36;64.64
10832;BME280;5469;48.574;8.768;2023-02-10T05:15:05;96644.34;;;-1.43;64.71
10832;BME280;5469;48.574;8.768;2023-02-10T05:17:42;96658.97;;;-1.86;66.27
10832;BME280;5469;48.574;8.768;2023-02-10T05:20:17;96653.91;;;-1.69;65.48
10832;BME280;5469;48.574;8.768;2023-02-10T05:22:52;96666.78;;;-2.49;67.04
10832;BME280;5469;48.574;8.768;2023-02-10T05:25:29;96669.97;;;-1.92;66.53
10832;BME280;5469;48.574;8.768;2023-02-10T05:28:04;96676.78;;;-1.91;66.14
10832;BME280;5469;48.574;8.768;2023-02-10T05:30:40;96673.00;;;-1.96;66.35
10832;BME280;5469;48.574;8.768;2023-02-10T05:33:16;96664.91;;;-2.11;66.77
10832;BME280;5469;48.574;8.768;2023-02-10T05:35:51;96670.69;;;-2.17;67.00
10832;BME280;5469;48.574;8.768;2023-02-10T05:38:26;96664.13;;;-1.50;64.90
10832;BME280;5469;48.574;8.768;2023-02-10T05:41:03;96664.84;;;-1.40;63.87
10832;BME280;5469;48.574;8.768;2023-02-10T05:43:38;96672.41;;;-1.28;63.05
10832;BME280;5469;48.574;8.768;2023-02-10T05:46:13;96669.28;;;-1.06;62.87
10832;BME280;5469;48.574;8.768;2023-02-10T05:48:48;96680.25;;;-1.20;62.88
10832;BME280;5469;48.574;8.768;2023-02-10T05:51:23;96673.31;;;-1.38;63.35
10832;BME280;5469;48.574;8.768;2023-02-10T05:53:58;96681.66;;;-1.52;63.20
10832;BME280;5469;48.574;8.768;2023-02-10T05:56:35;96689.78;;;-1.73;64.46
10832;BME280;5469;48.574;8.768;2023-02-10T05:59:12;96683.22;;;-2.31;66.27
10832;BME280;5469;48.574;8.768;2023-02-10T06:01:48;96686.66;;;-2.12;65.73
10832;BME280;5469;48.574;8.768;2023-02-10T06:04:24;96695.72;;;-2.44;67.11
10832;BME280;5469;48.574;8.768;2023-02-10T06:06:59;96694.16;;;-2.09;66.71
10832;BME280;5469;48.574;8.768;2023-02-10T06:09:34;96696.97;;;-1.85;66.07
10832;BME280;5469;48.574;8.768;2023-02-10T06:12:10;96695.56;;;-2.15;66.04
10832;BME280;5469;48.574;8.768;2023-02-10T06:14:45;96704.63;;;-2.01;66.49
10832;BME280;5469;48.574;8.768;2023-02-10T06:17:20;96705.88;;;-2.05;66.47
10832;BME280;5469;48.574;8.768;2023-02-10T06:19:55;96700.53;;;-1.50;65.37
10832;BME280;5469;48.574;8.768;2023-02-10T06:22:30;96707.00;;;-1.54;64.89
10832;BME280;5469;48.574;8.768;2023-02-10T06:25:07;96709.44;;;-1.35;63.99
10832;BME280;5469;48.574;8.768;2023-02-10T06:27:43;96708.94;;;-1.56;65.01
10832;BME280;5469;48.574;8.768;2023-02-10T06:30:19;96707.53;;;-2.04;65.96
10832;BME280;5469;48.574;8.768;2023-02-10T06:32:55;96712.66;;;-2.40;67.65
10832;BME280;5469;48.574;8.768;2023-02-10T06:35:30;96716.25;;;-2.23;66.95
10832;BME280;5469;48.574;8.768;2023-02-10T06:38:05;96712.72;;;-2.59;68.19
10832;BME280;5469;48.574;8.768;2023-02-10T06:40:41;96715.53;;;-2.71;69.07
10832;BME280;5469;48.574;8.768;2023-02-10T06:43:17;96709.16;;;-2.03;67.03
10832;BME280;5469;48.574;8.768;2023-02-10T06:45:52;96720.94;;;-2.09;66.76
10832;BME280;5469;48.574;8.768;2023-02-10T06:48:27;96725.44;;;-2.29;68.06
10832;BME280;5469;48.574;8.768;2023-02-10T06:51:03;96730.44;;;-2.17;68.11
10832;BME280;5469;48.574;8.768;2023-02-10T06:53:38;96727.28;;;-2.67;69.09
10832;BME280;5469;48.574;8.768;2023-02-10T06:56:14;96731.91;;;-2.33;68.25
10832;BME280;5469;48.574;8.768;2023-02-10T06:58:52;96732.69;;;-1.87;67.15
10832;BME280;5469;48.574;8.768;2023-02-10T07:01:31;96747.22;;;-2.39;69.34
10832;BME280;5469;48.574;8.768;2023-02-10T07:04:07;96746.56;;;-2.14;68.47
10832;BME280;5469;48.574;8.768;2023-02-10T07:06:42;96743.78;;;-2.68;69.20
10832;BME280;5469;48.574;8.768;2023-02-10T07:09:17;96745.31;;;-2.10;67.28
10832;BME280;5469;48.574;8.768;2023-02-10T07:11:52;96739.41;;;-2.30;68.12
10832;BME280;5469;48.574;8.768;2023-02-10T07:14:29;96747.31;;;-2.31;67.57
10832;BME280;5469;48.574;8.768;2023-02-10T07:17:04;96738.03;;;-2.34;68.11
10832;BME280;5469;48.574;8.768;2023-02-10T07:19:39;96727.16;;;-2.47;69.63
10832;BME280;5469;48.574;8.768;2023-02-10T07:22:14;96738.03;;;-2.34;68.48
10832;BME280;5469;48.574;8.768;2023-02-10T07:24:48;96738.63;;;-2.12;68.31
10832;BME280;5469;48.574;8.768;2023-02-10T07:27:24;96740.16;;;-2.20;68.41
10832;BME280;5469;48.574;8.768;2023-02-10T07:30:01;96739.88;;;-2.16;68.73
10832;BME280;5469;48.574;8.768;2023-02-10T07:32:41;96736.13;;;-1.86;67.51
10832;BME280;5469;48.574;8.768;2023-02-10T07:35:18;96737.00;;;-1.78;68.05
10832;BME280;5469;48.574;8.768;2023-02-10T07:37:53;96732.25;;;-1.82;67.83
10832;BME280;5469;48.574;8.768;2023-02-10T07:40:28;96736.19;;;-1.24;65.95
10832;BME280;5469;48.574;8.768;2023-02-10T07:43:03;96740.19;;;-1.04;64.87
10832;BME280;5469;48.574;8.768;2023-02-10T07:45:40;96745.00;;;-0.91;64.37
10832;BME280;5469;48.574;8.768;2023-02-10T07:48:15;96742.28;;;-1.34;66.17
10832;BME280;5469;48.574;8.768;2023-02-10T07:50:50;96758.25;;;-0.84;63.94
10832;BME280;5469;48.574;8.768;2023-02-10T07:53:25;96752.25;;;-0.77;63.69
10832;BME280;5469;48.574;8.768;2023-02-10T07:56:01;96755.69;;;-0.76;64.34
10832;BME280;5469;48.574;8.768;2023-02-10T07:58:37;96755.22;;;-1.42;66.94
10832;BME280;5469;48.574;8.768;2023-02-10T08:01:13;96749.75;;;-0.86;65.10
10832;BME280;5469;48.574;8.768;2023-02-10T08:03:48;96751.09;;;-0.82;65.07
10832;BME280;5469;48.574;8.768;2023-02-10T08:06:24;96745.28;;;-0.76;65.62
10832;BME280;5469;48.574;8.768;2023-02-10T08:09:00;96750.66;;;-0.43;62.63
10832;BME280;5469;48.574;8.768;2023-02-10T08:11:35;96753.50;;;-0.55;64.33
10832;BME280;5469;48.574;8.768;2023-02-10T08:14:10;96748.38;;;-0.47;64.99
10832;BME280;5469;48.574;8.768;2023-02-10T08:16:46;96757.88;;;-0.29;63.88
10832;BME280;5469;48.574;8.768;2023-02-10T08:19:22;96759.63;;;-0.38;65.00
10832;BME280;5469;48.574;8.768;2023-02-10T08:21:57;96762.69;;;-0.42;64.87
10832;BME280;5469;48.574;8.768;2023-02-10T08:24:32;96761.09;;;-0.43;64.44
10832;BME280;5469;48.574;8.768;2023-02-10T08:27:07;96761.09;;;-0.43;63.88
10832;BME280;5469;48.574;8.768;2023-02-10T08:29:46;96762.72;;;-0.34;65.74
10832;BME280;5469;48.574;8.768;2023-02-10T08:32:22;96760.06;;;-0.08;64.28
10832;BME280;5469;48.574;8.768;2023-02-10T08:34:57;96765.13;;;-0.07;65.14
10832;BME280;5469;48.574;8.768;2023-02-10T08:37:33;96767.84;;;0.26;63.14
10832;BME280;5469;48.574;8.768;2023-02-10T08:40:09;96768.78;;;0.17;64.45
10832;BME280;5469;48.574;8.768;2023-02-10T08:42:44;96769.78;;;0.24;65.64
10832;BME280;5469;48.574;8.768;2023-02-10T08:45:19;96771.72;;;0.22;65.62
10832;BME280;5469;48.574;8.768;2023-02-10T08:47:56;96774.03;;;0.33;64.01
10832;BME280;5469;48.574;8.768;2023-02-10T08:50:32;96768.81;;;0.33;64.40
10832;BME280;5469;48.574;8.768;2023-02-10T08:53:07;96767.53;;;0.46;63.58
10832;BME280;5469;48.574;8.768;2023-02-10T08:55:43;96772.75;;;0.46;63.79
10832;BME280;5469;48.574;8.768;2023-02-10T08:58:18;96775.56;;;0.52;63.45
10832;BME280;5469;48.574;8.768;2023-02-10T09:00:59;96770.34;;;0.60;62.33
10832;BME280;5469;48.574;8.768;2023-02-10T09:03:39;96768.38;;;0.71;62.20
10832;BME280;5469;48.574;8.768;2023-02-10T09:06:16;96765.09;;;0.93;62.33
10832;BME280;5469;48.574;8.768;2023-02-10T09:08:52;96762.66;;;1.00;62.56
10832;BME280;5469;48.574;8.768;2023-02-10T09:11:27;96766.53;;;1.28;61.41
10832;BME280;5469;48.574;8.768;2023-02-10T09:14:04;96770.47;;;1.33;61.30
10832;BME280;5469;48.574;8.768;2023-02-10T09:16:40;96769.78;;;1.39;60.45
10832;BME280;5469;48.574;8.768;2023-02-10T09:19:17;96772.41;;;1.39;60.92
10832;BME280;5469;48.574;8.768;2023-02-10T09:21:53;96759.09;;;1.65;60.57
10832;BME280;5469;48.574;8.768;2023-02-10T09:24:29;96763.03;;;1.69;59.86
10832;BME280;5469;48.574;8.768;2023-02-10T09:27:05;96768.22;;;1.77;59.03
10832;BME280;5469;48.574;8.768;2023-02-10T09:29:40;96768.63;;;1.97;60.44
10832;BME280;5469;48.574;8.768;2023-02-10T09:32:16;96765.19;;;2.28;59.85
10832;BME280;5469;48.574;8.768;2023-02-10T09:34:53;96762.53;;;3.05;63.63
10832;BME280;5469;48.574;8.768;2023-02-10T09:37:29;96758.34;;;3.78;60.61
10832;BME280;5469;48.574;8.768;2023-02-10T09:40:05;96752.56;;;5.26;62.81
10832;BME280;5469;48.574;8.768;2023-02-10T09:42:52;96755.09;;;6.04;63.12
10832;BME280;5469;48.574;8.768;2023-02-10T09:45:36;96757.75;;;6.92;54.02
10832;BME280;5469;48.574;8.768;2023-02-10T09:48:25;96756.91;;;7.65;56.34
10832;BME280;5469;48.574;8.768;2023-02-10T09:51:13;96768.88;;;8.46;49.36
10832;BME280;5469;48.574;8.768;2023-02-10T09:53:52;96770.84;;;9.21;45.95
10832;BME280;5469;48.574;8.768;2023-02-10T09:56:27;96765.03;;;9.37;42.57
10832;BME280;5469;48.574;8.768;2023-02-10T09:59:02;96763.03;;;12.28;43.91
10832;BME280;5469;48.574;8.768;2023-02-10T10:01:42;96760.41;;;10.31;42.28
10832;BME280;5469;48.574;8.768;2023-02-10T10:04:21;96746.28;;;14.52;39.71
10832;BME280;5469;48.574;8.768;2023-02-10T10:07:09;96753.78;;;14.11;35.32
10832;BME280;5469;48.574;8.768;2023-02-10T10:09:51;96758.38;;;15.41;34.27
10832;BME280;5469;48.574;8.768;2023-02-10T10:12:31;96756.81;;;16.30;34.11
10832;BME280;5469;48.574;8.768;2023-02-10T10:15:10;96752.44;;;16.08;32.22
10832;BME280;5469;48.574;8.768;2023-02-10T10:18:02;96751.94;;;17.87;31.03
10832;BME280;5469;48.574;8.768;2023-02-10T10:20:47;96757.47;;;14.98;30.97
10832;BME280;5469;48.574;8.768;2023-02-10T10:23:33;96745.75;;;16.79;31.33
10832;BME280;5469;48.574;8.768;2023-02-10T10:26:34;96756.94;;;16.60;28.93
10832;BME280;5469;48.574;8.768;2023-02-10T10:29:20;96753.78;;;16.79;29.10
10832;BME280;5469;48.574;8.768;2023-02-10T10:32:15;96754.09;;;14.80;30.15
10832;BME280;5469;48.574;8.768;2023-02-10T10:34:53;96754.44;;;15.16;32.45
10832;BME280;5469;48.574;8.768;2023-02-10T10:37:29;96743.50;;;18.40;27.83
10832;BME280;5469;48.574;8.768;2023-02-10T10:40:08;96753.22;;;14.97;27.34
10832;BME280;5469;48.574;8.768;2023-02-10T10:42:48;96752.22;;;17.14;27.56
10832;BME280;5469;48.574;8.768;2023-02-10T10:45:28;96756.66;;;14.26;28.25
10832;BME280;5469;48.574;8.768;2023-02-10T10:48:08;96745.50;;;18.03;25.56
10832;BME280;5469;48.574;8.768;2023-02-10T10:50:45;96752.13;;;15.30;28.39
10832;BME280;5469;48.574;8.768;2023-02-10T10:53:22;96751.81;;;16.59;25.69
10832;BME280;5469;48.574;8.768;2023-02-10T10:56:05;96739.38;;;14.78;27.94
10832;BME280;5469;48.574;8.768;2023-02-10T10:58:44;96730.44;;;18.07;26.66
10832;BME280;5469;48.574;8.768;2023-02-10T11:01:31;96736.75;;;19.65;26.03
10832;BME280;5469;48.574;8.768;2023-02-10T11:04:10;96740.00;;;19.92;23.89
10832;BME280;5469;48.574;8.768;2023-02-10T11:06:50;96734.44;;;19.19;22.93
10832;BME280;5469;48.574;8.768;2023-02-10T11:09:29;96740.25;;;15.48;26.77
10832;BME280;5469;48.574;8.768;2023-02-10T11:12:20;96720.31;;;19.38;26.63
10832;BME280;5469;48.574;8.768;2023-02-10T11:14:56;96719.16;;;21.26;22.99
10832;BME280;5469;48.574;8.768;2023-02-10T11:17:34;96706.28;;;21.56;22.94
10832;BME280;5469;48.574;8.768;2023-02-10T11:20:24;96706.31;;;20.42;25.15
10832;BME280;5469;48.574;8.768;2023-02-10T11:23:03;96707.13;;;21.98;22.70
10832;BME280;5469;48.574;8.768;2023-02-10T11:25:39;96714.47;;;18.42;23.67
10832;BME280;5469;48.574;8.768;2023-02-10T11:28:20;96715.53;;;22.38;22.66
10832;BME280;5469;48.574;8.768;2023-02-10T11:31:00;96704.47;;;22.76;20.60
10832;BME280;5469;48.574;8.768;2023-02-10T11:33:37;96720.13;;;23.69;21.49
10832;BME280;5469;48.574;8.768;2023-02-10T11:36:12;96717.16;;;22.89;21.60
10832;BME280;5469;48.574;8.768;2023-02-10T11:38:47;96717.06;;;21.56;22.62
10832;BME280;5469;48.574;8.768;2023-02-10T11:41:34;96718.00;;;23.12;21.75
10832;BME280;5469;48.574;8.768;2023-02-10T11:44:23;96719.44;;;21.44;21.64
10832;BME280;5469;48.574;8.768;2023-02-10T11:47:00;96716.59;;;23.15;19.82
10832;BME280;5469;48.574;8.768;2023-02-10T11:49:34;96719.78;;;23.62;21.52
10832;BME280;5469;48.574;8.768;2023-02-10T11:52:09;96710.75;;;23.97;20.12
10832;BME280;5469;48.574;8.768;2023-02-10T11:54:43;96713.91;;;24.39;20.67
10832;BME280;5469;48.574;8.768;2023-02-10T11:57:25;96708.72;;;24.69;20.84
10832;BME280;5469;48.574;8.768;2023-02-10T12:00:24;96708.84;;;23.22;19.84
10832;BME280;5469;48.574;8.768;2023-02-10T12:03:24;96708.34;;;22.47;20.97
10832;BME280;5469;48.574;8.768;2023-02-10T12:06:05;96714.00;;;24.66;20.44
10832;BME280;5469;48.574;8.768;2023-02-10T12:08:49;96710.13;;;26.18;19.54
10832;BME280;5469;48.574;8.768;2023-02-10T12:11:30;96710.09;;;26.27;19.09
10832;BME280;5469;48.574;8.768;2023-02-10T12:14:26;96718.63;;;25.52;20.03
10832;BME280;5469;48.574;8.768;2023-02-10T12:17:14;96710.69;;;23.35;19.23
10832;BME280;5469;48.574;8.768;2023-02-10T12:23:10;96710.44;;;20.59;21.90
10832;BME280;5469;48.574;8.768;2023-02-10T12:25:54;96706.56;;;20.22;22.33
10832;BME280;5469;48.574;8.768;2023-02-10T12:28:39;96700.91;;;21.84;23.44
10832;BME280;5469;48.574;8.768;2023-02-10T12:31:23;96692.25;;;23.99;22.47
10832;BME280;5469;48.574;8.768;2023-02-10T12:34:16;96686.16;;;24.34;20.14
10832;BME280;5469;48.574;8.768;2023-02-10T12:37:03;96693.50;;;21.62;21.21
10832;BME280;5469;48.574;8.768;2023-02-10T12:40:02;96680.94;;;21.85;21.65
10832;BME280;5469;48.574;8.768;2023-02-10T12:42:46;96675.59;;;22.85;21.75
10832;BME280;5469;48.574;8.768;2023-02-10T12:45:28;96677.72;;;22.38;20.29
10832;BME280;5469;48.574;8.768;2023-02-10T12:48:16;96676.75;;;21.13;20.75
10832;BME280;5469;48.574;8.768;2023-02-10T12:51:09;96668.22;;;23.67;22.05
10832;BME280;5469;48.574;8.768;2023-02-10T12:53:48;96667.50;;;24.32;19.36
10832;BME280;5469;48.574;8.768;2023-02-10T12:56:25;96663.22;;;25.44;20.87
10832;BME280;5469;48.574;8.768;2023-02-10T12:59:03;96664.31;;;23.50;20.44
10832;BME280;5469;48.574;8.768;2023-02-10T13:01:42;96673.16;;;20.23;21.75
10832;BME280;5469;48.574;8.768;2023-02-10T13:04:21;96670.91;;;18.55;24.52
10832;BME280;5469;48.574;8.768;2023-02-10T13:06:59;96671.41;;;20.75;20.75
10832;BME280;5469;48.574;8.768;2023-02-10T13:09:38;96664.34;;;19.40;23.90
10832;BME280;5469;48.574;8.768;2023-02-10T13:12:17;96666.34;;;18.55;22.54
10832;BME280;5469;48.574;8.768;2023-02-10T13:14:58;96661.59;;;18.87;20.79
10832;BME280;5469;48.574;8.768;2023-02-10T13:17:39;96656.06;;;22.65;19.65
10832;BME280;5469;48.574;8.768;2023-02-10T13:20:29;96659.91;;;21.81;19.59
10832;BME280;5469;48.574;8.768;2023-02-10T13:23:24;96651.44;;;21.74;20.68
10832;BME280;5469;48.574;8.768;2023-02-10T13:26:17;96656.34;;;23.76;20.89
10832;BME280;5469;48.574;8.768;2023-02-10T13:29:03;96657.94;;;24.43;19.87
10832;BME280;5469;48.574;8.768;2023-02-10T13:32:00;96651.47;;;25.23;19.23
10832;BME280;5469;48.574;8.768;2023-02-10T13:34:41;96657.66;;;24.54;17.23
10832;BME280;5469;48.574;8.768;2023-02-10T13:37:17;96656.25;;;24.82;19.29
10832;BME280;5469;48.574;8.768;2023-02-10T13:39:56;96662.91;;;23.08;19.30
10832;BME280;5469;48.574;8.768;2023-02-10T13:42:32;96658.44;;;23.03;21.44
10832;BME280;5469;48.574;8.768;2023-02-10T13:45:15;96659.03;;;22.78;21.80
10832;BME280;5469;48.574;8.768;2023-02-10T13:47:53;96663.66;;;22.63;22.15
10832;BME280;5469;48.574;8.768;2023-02-10T13:50:30;96659.72;;;21.64;23.30
10832;BME280;5469;48.574;8.768;2023-02-10T13:53:24;96659.38;;;21.19;22.64
10832;BME280;5469;48.574;8.768;2023-02-10T13:56:14;96660.72;;;20.27;23.31
10832;BME280;5469;48.574;8.768;2023-02-10T13:58:51;96657.56;;;22.94;21.95
10832;BME280;5469;48.574;8.768;2023-02-10T14:01:37;96662.31;;;21.97;22.25
10832;BME280;5469;48.574;8.768;2023-02-10T14:04:27;96668.00;;;21.81;23.66
10832;BME280;5469;48.574;8.768;2023-02-10T14:07:00;96669.19;;;22.58;21.87
10832;BME280;5469;48.574;8.768;2023-02-10T14:09:35;96674.91;;;22.15;21.42
10832;BME280;5469;48.574;8.768;2023-02-10T14:12:26;96658.94;;;23.05;20.09
10832;BME280;5469;48.574;8.768;2023-02-10T14:15:21;96666.41;;;23.31;20.59
10832;BME280;5469;48.574;8.768;2023-02-10T14:17:58;96670.53;;;22.19;21.34
10832;BME280;5469;48.574;8.768;2023-02-10T14:20:35;96669.94;;;22.36;22.25